Time;durP1;ratioP1;P1;durP2;ratioP2;P2;SDS_P1;SDS_P2;PMS_P1;PMS_P2;Temp;Humidity;BMP_temperature;BMP_pressure;BME280_temperature;BME280_humidity;BME280_pressure;Samples;Min_cycle;Max_cycle;Signal;HPM_P1;HPM_P2
2021/04/21 00:00:19;;;;;;;7.90;4.25;;;3.80;99.90;;;;;;5038610;28;20048;-69
2021/04/21 00:02:54;;;;;;;8.88;4.30;;;3.70;99.90;;;;;;4999881;28;20069;-68
2021/04/21 00:05:24;;;;;;;11.20;4.53;;;3.70;99.90;;;;;;4999609;28;20038;-71
2021/04/21 00:07:52;;;;;;;10.13;4.55;;;3.60;99.90;;;;;;4998101;28;20084;-71
2021/04/21 00:10:22;;;;;;;11.68;4.57;;;3.60;99.90;;;;;;4998497;28;20019;-71
2021/04/21 00:12:51;;;;;;;13.48;5.25;;;3.60;99.90;;;;;;4998285;28;20045;-71
2021/04/21 00:15:24;;;;;;;8.77;4.63;;;3.60;99.90;;;;;;4997882;28;20023;-71
2021/04/21 00:18:02;;;;;;;10.27;4.43;;;3.60;99.90;;;;;;4998255;28;20427;-71
2021/04/21 00:20:32;;;;;;;7.75;4.25;;;3.60;99.90;;;;;;4998360;28;20042;-71
2021/04/21 00:23:10;;;;;;;5.90;3.80;;;3.60;99.90;;;;;;4998035;28;20300;-71
2021/04/21 00:25:40;;;;;;;8.05;4.03;;;3.60;99.90;;;;;;4998344;28;20030;-71
2021/04/21 00:28:08;;;;;;;8.80;3.92;;;3.60;99.90;;;;;;4996843;28;20026;-69
2021/04/21 00:30:37;;;;;;;7.53;4.05;;;3.50;99.90;;;;;;4997452;28;20027;-69
2021/04/21 00:33:05;;;;;;;10.45;4.22;;;3.50;99.90;;;;;;4997815;28;20023;-69
2021/04/21 00:35:40;;;;;;;12.80;4.80;;;3.40;99.90;;;;;;4998901;28;20019;-69
2021/04/21 00:38:21;;;;;;;13.85;4.10;;;3.30;99.90;;;;;;4998711;28;20419;-69
2021/04/21 00:41:19;;;;;;;10.27;4.03;;;3.30;99.90;;;;;;4999248;28;20031;-69
2021/04/21 00:44:14;;;;;;;7.65;3.92;;;3.30;99.90;;;;;;4997381;28;20039;-69
2021/04/21 00:46:48;;;;;;;7.15;4.35;;;3.30;99.90;;;;;;4998321;28;20330;-69
2021/04/21 00:49:47;;;;;;;9.68;4.30;;;3.30;99.90;;;;;;4996629;28;20117;-69
2021/04/21 00:52:24;;;;;;;8.23;4.40;;;3.30;99.90;;;;;;4997892;28;20034;-69
2021/04/21 00:55:18;;;;;;;9.50;4.68;;;3.20;99.90;;;;;;4997777;28;20105;-69
2021/04/21 00:57:52;;;;;;;7.00;4.03;;;3.20;99.90;;;;;;4996484;28;20026;-69
2021/04/21 01:00:28;;;;;;;11.65;4.25;;;3.20;99.90;;;;;;4998190;28;20081;-70
2021/04/21 01:03:10;;;;;;;6.45;3.95;;;3.20;99.90;;;;;;5037356;28;20037;-69
2021/04/21 01:05:43;;;;;;;6.50;3.83;;;3.20;99.90;;;;;;5036886;28;20021;-69
2021/04/21 01:08:24;;;;;;;8.02;3.65;;;3.10;99.90;;;;;;5019104;28;20025;-69
2021/04/21 01:11:00;;;;;;;9.88;4.53;;;3.10;99.90;;;;;;5037269;28;20026;-70
2021/04/21 01:13:36;;;;;;;7.28;4.43;;;3.00;99.90;;;;;;5037559;28;20025;-70
2021/04/21 01:16:06;;;;;;;9.10;3.92;;;2.90;99.90;;;;;;5037932;28;20044;-69
2021/04/21 01:18:38;;;;;;;9.60;4.07;;;2.90;99.90;;;;;;5020370;28;20025;-69
2021/04/21 01:21:33;;;;;;;6.88;4.25;;;2.90;99.90;;;;;;5037458;28;20467;-69
2021/04/21 01:24:22;;;;;;;7.47;4.32;;;2.90;99.90;;;;;;5037126;28;20041;-69
2021/04/21 01:26:50;;;;;;;12.27;4.25;;;2.80;99.90;;;;;;5037573;28;20025;-69
2021/04/21 01:29:37;;;;;;;8.82;3.85;;;2.80;99.90;;;;;;5019014;28;20065;-69
2021/04/21 01:32:06;;;;;;;;;;;2.80;99.90;;;;;;5036851;28;20049;-69
2021/04/21 01:34:37;;;;;;;5.50;3.22;;;2.80;99.90;;;;;;5037085;28;19996;-69
2021/04/21 01:37:06;;;;;;;6.60;3.60;;;2.80;99.90;;;;;;5036944;28;20017;-69
2021/04/21 01:39:40;;;;;;;8.60;4.28;;;2.70;99.90;;;;;;5036361;28;20026;-69
2021/04/21 01:42:10;;;;;;;6.72;3.72;;;2.60;99.90;;;;;;5018695;28;20327;-69
2021/04/21 01:44:42;;;;;;;10.18;3.85;;;2.60;99.90;;;;;;5036999;28;20402;-69
2021/04/21 01:47:15;;;;;;;6.65;3.72;;;2.60;99.90;;;;;;5036740;28;20022;-69
2021/04/21 01:49:54;;;;;;;9.07;4.45;;;2.50;99.90;;;;;;5036728;28;20025;-69
2021/04/21 01:52:47;;;;;;;9.40;4.82;;;2.50;99.90;;;;;;5037144;28;20101;-69
2021/04/21 01:55:21;;;;;;;6.43;3.72;;;2.50;99.90;;;;;;5037811;28;20017;-69
2021/04/21 01:57:58;;;;;;;6.95;3.65;;;2.50;99.90;;;;;;5037551;28;20109;-69
2021/04/21 02:00:50;;;;;;;6.57;3.47;;;2.40;99.90;;;;;;5037358;28;20025;-69
2021/04/21 02:03:36;;;;;;;9.88;3.58;;;2.40;99.90;;;;;;5037023;28;20037;-69
2021/04/21 02:06:22;;;;;;;7.75;3.67;;;2.30;99.90;;;;;;5037166;28;20101;-69
2021/04/21 02:09:22;;;;;;;11.48;4.50;;;2.30;99.90;;;;;;5037467;28;20021;-69
2021/04/21 02:12:22;;;;;;;12.55;4.60;;;2.20;99.90;;;;;;5036082;28;20072;-69
2021/04/21 02:15:05;;;;;;;8.52;4.10;;;2.20;99.90;;;;;;5018692;28;20022;-69
2021/04/21 02:17:58;;;;;;;9.70;4.78;;;2.20;99.90;;;;;;5018450;28;20026;-69
2021/04/21 02:20:41;;;;;;;13.55;4.10;;;2.20;99.90;;;;;;5036271;28;20052;-69
2021/04/21 02:23:13;;;;;;;8.45;4.22;;;2.20;99.90;;;;;;5036244;28;20029;-69
2021/04/21 02:26:11;;;;;;;7.30;4.30;;;2.20;99.90;;;;;;5036670;28;20033;-69
2021/04/21 02:28:51;;;;;;;10.18;4.50;;;2.30;99.90;;;;;;4995409;28;20038;-69
2021/04/21 02:31:43;;;;;;;9.85;3.80;;;2.30;99.90;;;;;;5036104;28;20429;-69
2021/04/21 02:34:23;;;;;;;8.10;3.78;;;2.20;99.90;;;;;;5037232;28;20029;-69
2021/04/21 02:37:19;;;;;;;7.68;3.63;;;2.20;99.90;;;;;;5037340;28;20372;-69
2021/04/21 02:40:13;;;;;;;6.63;3.20;;;2.10;99.90;;;;;;5040323;28;20030;-69
2021/04/21 02:43:25;;;;;;;8.32;4.43;;;2.00;99.90;;;;;;5022965;28;20324;-69
2021/04/21 02:46:14;;;;;;;8.48;3.83;;;1.90;99.90;;;;;;5040758;28;20029;-69
2021/04/21 02:49:08;;;;;;;7.43;4.07;;;1.80;99.90;;;;;;5022575;28;20041;-69
2021/04/21 02:51:46;;;;;;;14.82;4.55;;;1.80;99.90;;;;;;5021693;28;20029;-69
2021/04/21 02:54:33;;;;;;;9.65;3.97;;;1.80;99.90;;;;;;5040057;28;20037;-69
2021/04/21 02:57:28;;;;;;;10.27;4.75;;;1.80;99.90;;;;;;5039693;28;20021;-69
2021/04/21 03:00:06;;;;;;;9.10;5.10;;;1.80;99.90;;;;;;5021412;28;20113;-69
2021/04/21 03:02:36;;;;;;;11.38;4.18;;;1.80;99.90;;;;;;5038818;28;20081;-69
2021/04/21 03:05:26;;;;;;;13.15;3.72;;;1.70;99.90;;;;;;5039282;28;20032;-69
2021/04/21 03:08:09;;;;;;;8.20;4.13;;;1.70;99.90;;;;;;5039391;28;20420;-69
2021/04/21 03:11:17;;;;;;;10.02;3.70;;;1.70;99.90;;;;;;5039621;28;20476;-69
2021/04/21 03:14:22;;;;;;;7.93;4.40;;;1.70;99.90;;;;;;5035085;28;20488;-69
2021/04/21 03:16:59;;;;;;;10.25;4.15;;;1.70;99.90;;;;;;5039951;28;20045;-69
2021/04/21 03:19:39;;;;;;;8.55;4.35;;;1.70;99.90;;;;;;5039586;28;20103;-69
2021/04/21 03:22:14;;;;;;;7.95;4.10;;;1.60;99.90;;;;;;5039558;28;20029;-69
2021/04/21 03:25:12;;;;;;;6.75;3.85;;;1.60;99.90;;;;;;5022236;28;20120;-69
2021/04/21 03:27:46;;;;;;;8.82;4.03;;;1.60;99.90;;;;;;5026490;28;20075;-69
2021/04/21 03:30:16;;;;;;;10.57;4.20;;;1.60;99.90;;;;;;5039600;28;20018;-69
2021/04/21 03:33:15;;;;;;;10.95;4.95;;;1.60;99.90;;;;;;5020933;28;20445;-69
2021/04/21 03:35:47;;;;;;;9.38;4.35;;;1.60;99.90;;;;;;5034328;28;20040;-69
2021/04/21 03:38:16;;;;;;;8.52;4.13;;;1.60;99.90;;;;;;5038842;28;20025;-69
2021/04/21 03:40:44;;;;;;;12.07;4.03;;;1.50;99.90;;;;;;5038922;28;20337;-69
2021/04/21 03:43:13;;;;;;;8.13;4.07;;;1.50;99.90;;;;;;5038264;28;20033;-69
2021/04/21 03:45:46;;;;;;;9.38;4.57;;;1.50;99.90;;;;;;5038296;28;20021;-69
2021/04/21 03:48:16;;;;;;;10.77;4.22;;;1.50;99.90;;;;;;5020315;28;20310;-69
2021/04/21 03:50:46;;;;;;;8.05;4.47;;;1.40;99.90;;;;;;5020583;28;20030;-69
2021/04/21 03:53:19;;;;;;;7.63;4.05;;;1.50;99.90;;;;;;5038726;28;20013;-69
2021/04/21 03:55:47;;;;;;;12.10;3.83;;;1.40;99.90;;;;;;5021360;28;20116;-69
2021/04/21 03:58:20;;;;;;;9.13;4.15;;;1.40;99.90;;;;;;5038904;28;20021;-69
2021/04/21 04:01:14;;;;;;;9.88;4.13;;;1.40;99.90;;;;;;5038626;28;20037;-69
2021/04/21 04:03:58;;;;;;;8.00;4.45;;;1.40;99.90;;;;;;5038968;28;20030;-69
2021/04/21 04:06:48;;;;;;;7.82;3.35;;;1.40;99.90;;;;;;5038619;28;20034;-69
2021/04/21 04:09:22;;;;;;;8.55;3.47;;;1.40;99.90;;;;;;5038802;28;20444;-69
2021/04/21 04:12:05;;;;;;;9.85;3.20;;;1.30;99.90;;;;;;5038130;28;20030;-69
2021/04/21 04:14:36;;;;;;;7.30;3.30;;;1.30;99.90;;;;;;5038001;28;20017;-69
2021/04/21 04:17:05;;;;;;;10.40;3.60;;;1.20;99.90;;;;;;5020102;28;20032;-69
2021/04/21 04:19:37;;;;;;;7.03;3.88;;;1.20;99.90;;;;;;5020216;28;20060;-69
2021/04/21 04:22:07;;;;;;;12.80;4.22;;;1.10;99.90;;;;;;5037811;28;20401;-69
2021/04/21 04:24:43;;;;;;;9.23;3.78;;;1.10;99.90;;;;;;5037533;28;20076;-69
2021/04/21 04:27:23;;;;;;;7.78;4.00;;;1.00;99.90;;;;;;5037675;28;20025;-69
2021/04/21 04:29:51;;;;;;;8.25;4.30;;;1.00;99.90;;;;;;5038110;28;20021;-69
2021/04/21 04:32:24;;;;;;;9.65;4.60;;;1.10;99.90;;;;;;5038071;28;20044;-69
2021/04/21 04:34:55;;;;;;;8.00;4.40;;;1.10;99.90;;;;;;5038137;28;20056;-69
2021/04/21 04:37:26;;;;;;;10.13;4.35;;;1.10;99.90;;;;;;5038139;28;20318;-69
2021/04/21 04:39:54;;;;;;;8.40;4.65;;;1.10;99.90;;;;;;5038246;28;20017;-70
2021/04/21 04:42:22;;;;;;;6.70;3.53;;;1.10;99.90;;;;;;5038087;28;20092;-70
2021/04/21 04:44:55;;;;;;;11.57;4.65;;;1.10;99.90;;;;;;5038016;28;20109;-69
2021/04/21 04:47:49;;;;;;;8.88;3.83;;;1.20;99.90;;;;;;5037922;28;20041;-70
2021/04/21 04:50:20;;;;;;;10.45;4.68;;;1.20;99.90;;;;;;5038421;28;20294;-70
2021/04/21 04:52:50;;;;;;;7.95;4.22;;;1.20;99.90;;;;;;5037082;28;20033;-70
2021/04/21 04:55:20;;;;;;;9.10;4.05;;;1.30;99.90;;;;;;5037234;28;20409;-70
2021/04/21 04:57:50;;;;;;;9.80;4.72;;;1.30;99.90;;;;;;5036880;28;20061;-69
2021/04/21 05:00:23;;;;;;;9.25;3.60;;;1.30;99.90;;;;;;5036436;28;20075;-69
2021/04/21 05:03:15;;;;;;;13.02;4.82;;;1.30;99.90;;;;;;5037266;28;20092;-69
2021/04/21 05:06:00;;;;;;;9.48;3.92;;;1.30;99.90;;;;;;5036630;28;20025;-69
2021/04/21 05:09:02;;;;;;;8.77;4.18;;;1.30;99.90;;;;;;5037151;28;20049;-69
2021/04/21 05:11:35;;;;;;;7.97;3.58;;;1.40;99.90;;;;;;5019091;28;20056;-69
2021/04/21 05:14:11;;;;;;;9.88;4.85;;;1.40;99.90;;;;;;5037568;28;20108;-69
2021/04/21 05:16:56;;;;;;;8.82;3.92;;;1.50;99.90;;;;;;5020973;28;20398;-68
2021/04/21 05:20:00;;;;;;;11.23;4.45;;;1.60;99.90;;;;;;5037931;28;20025;-69
2021/04/21 05:23:01;;;;;;;9.82;4.47;;;1.60;99.90;;;;;;5020000;28;20025;-69
2021/04/21 05:26:05;;;;;;;9.20;4.32;;;1.70;99.90;;;;;;5020049;28;20032;-69
2021/04/21 05:28:33;;;;;;;11.48;5.03;;;1.80;99.90;;;;;;5019799;28;20152;-69
2021/04/21 05:31:25;;;;;;;8.20;5.00;;;1.90;99.90;;;;;;5037798;28;20101;-71
2021/04/21 05:34:29;;;;;;;12.55;4.13;;;1.90;99.90;;;;;;5036337;28;20070;-69
2021/04/21 05:37:33;;;;;;;9.40;4.75;;;2.00;99.90;;;;;;5036519;28;20029;-70
2021/04/21 05:40:37;;;;;;;10.48;4.75;;;2.10;99.90;;;;;;5018876;28;20057;-70
2021/04/21 05:43:23;;;;;;;10.07;5.07;;;2.30;99.90;;;;;;5036329;28;20076;-71
2021/04/21 05:46:12;;;;;;;9.90;5.20;;;2.30;99.90;;;;;;5036880;28;20030;-73
2021/04/21 05:48:57;;;;;;;15.27;5.20;;;2.40;99.90;;;;;;5018595;28;20055;-69
2021/04/21 05:51:49;;;;;;;11.97;4.83;;;2.60;99.90;;;;;;5036274;28;20022;-70
2021/04/21 05:54:29;;;;;;;11.13;4.82;;;2.70;99.90;;;;;;5037209;28;20252;-70
2021/04/21 05:57:30;;;;;;;13.45;5.20;;;2.80;99.90;;;;;;5037627;28;20414;-71
2021/04/21 06:00:34;;;;;;;9.52;5.53;;;3.00;99.90;;;;;;5037320;28;20048;-71
2021/04/21 06:03:04;;;;;;;10.65;5.32;;;3.10;99.90;;;;;;4996668;28;20107;-71
2021/04/21 06:05:32;;;;;;;21.52;12.35;;;3.30;99.90;;;;;;4997669;28;20030;-73
2021/04/21 06:08:11;;;;;;;13.45;5.95;;;3.40;99.90;;;;;;4997610;28;20081;-73
2021/04/21 06:10:40;;;;;;;10.80;6.22;;;3.50;99.90;;;;;;4996708;28;20030;-70
2021/04/21 06:13:11;;;;;;;13.57;5.82;;;3.70;99.90;;;;;;4998439;28;20085;-72
2021/04/21 06:15:41;;;;;;;13.85;5.60;;;3.80;99.90;;;;;;5001079;28;20027;-71
2021/04/21 06:18:10;;;;;;;11.80;6.55;;;4.00;99.90;;;;;;5000466;28;20065;-74
2021/04/21 06:20:45;;;;;;;11.65;6.05;;;4.10;99.90;;;;;;5000673;28;20026;-72
2021/04/21 06:23:21;;;;;;;16.83;5.15;;;4.30;99.90;;;;;;4999320;28;20041;-70
2021/04/21 06:26:02;;;;;;;14.68;7.28;;;4.40;99.90;;;;;;4999304;28;20030;-72
2021/04/21 06:28:29;;;;;;;10.18;5.75;;;4.60;99.90;;;;;;5000793;28;20073;-71
2021/04/21 06:31:09;;;;;;;9.32;5.20;;;4.70;99.90;;;;;;5000435;28;20022;-74
2021/04/21 06:33:40;;;;;;;15.82;6.15;;;4.80;99.90;;;;;;5000162;28;20032;-72
2021/04/21 06:36:09;;;;;;;14.07;6.32;;;5.00;99.90;;;;;;5000407;28;20022;-73
2021/04/21 06:38:40;;;;;;;14.48;6.20;;;5.20;99.90;;;;;;5000994;28;20105;-73
2021/04/21 06:41:08;;;;;;;14.15;6.32;;;5.30;99.90;;;;;;5001158;28;20419;-72
2021/04/21 06:43:38;;;;;;;11.38;5.15;;;5.50;99.90;;;;;;5000956;28;20035;-73
2021/04/21 06:46:10;;;;;;;10.60;5.72;;;5.70;99.90;;;;;;5000850;28;20026;-72
2021/04/21 06:48:39;;;;;;;11.00;5.63;;;5.80;99.90;;;;;;5001024;28;20030;-72
2021/04/21 06:51:13;;;;;;;10.20;5.93;;;6.00;99.90;;;;;;5001126;28;20086;-74
2021/04/21 06:53:41;;;;;;;17.60;6.30;;;6.20;99.90;;;;;;5000729;28;20064;-72
2021/04/21 06:56:09;;;;;;;13.80;5.40;;;6.40;99.90;;;;;;4999758;28;20301;-72
2021/04/21 06:58:39;;;;;;;10.50;5.55;;;6.50;99.90;;;;;;4998617;28;20061;-70
2021/04/21 07:01:14;;;;;;;12.25;4.78;;;6.70;99.90;;;;;;5011164;28;20123;-75
2021/04/21 07:03:43;;;;;;;9.55;4.68;;;6.90;99.90;;;;;;5021453;28;20425;-72
2021/04/21 07:06:13;;;;;;;11.55;5.05;;;7.00;99.90;;;;;;5038869;28;20034;-72
2021/04/21 07:08:41;;;;;;;10.82;5.38;;;7.20;99.90;;;;;;5039175;28;20072;-73
2021/04/21 07:11:10;;;;;;;9.02;5.40;;;7.40;99.90;;;;;;5039039;28;20075;-71
2021/04/21 07:13:46;;;;;;;10.43;5.07;;;7.50;99.90;;;;;;5039376;28;20056;-71
2021/04/21 07:16:21;;;;;;;11.55;6.00;;;7.60;99.90;;;;;;5039328;28;20025;-71
2021/04/21 07:18:56;;;;;;;7.65;4.43;;;7.80;99.90;;;;;;5040600;28;20040;-71
2021/04/21 07:21:25;;;;;;;8.53;4.50;;;7.90;99.90;;;;;;5040064;28;20033;-71
2021/04/21 07:24:00;;;;;;;8.90;5.15;;;8.00;99.90;;;;;;5039190;28;20029;-71
2021/04/21 07:26:30;;;;;;;11.40;4.18;;;8.10;99.90;;;;;;5039807;28;20495;-72
2021/04/21 07:28:58;;;;;;;14.00;4.55;;;8.20;99.90;;;;;;5039352;28;20061;-71
2021/04/21 07:31:26;;;;;;;10.38;4.30;;;8.40;99.90;;;;;;5039233;28;20025;-71
2021/04/21 07:33:54;;;;;;;7.57;3.47;;;8.40;99.90;;;;;;5040047;28;20052;-72
2021/04/21 07:36:24;;;;;;;8.30;4.95;;;8.60;99.90;;;;;;5038438;28;20014;-73
2021/04/21 07:38:53;;;;;;;8.00;3.80;;;8.70;99.90;;;;;;5038504;28;20421;-72
2021/04/21 07:41:35;;;;;;;9.52;3.92;;;8.90;99.90;;;;;;5038736;28;20101;-72
2021/04/21 07:44:05;;;;;;;5.38;2.85;;;9.00;98.90;;;;;;5020856;28;20192;-72
2021/04/21 07:46:33;;;;;;;8.70;3.20;;;9.20;98.40;;;;;;5038203;28;20030;-72
2021/04/21 07:49:07;;;;;;;6.68;3.15;;;9.40;98.00;;;;;;5038124;28;20041;-72
2021/04/21 07:51:38;;;;;;;8.85;3.13;;;9.60;97.30;;;;;;5020766;28;20017;-72
2021/04/21 07:54:27;;;;;;;8.30;3.50;;;9.80;95.90;;;;;;5038826;28;20021;-80
2021/04/21 07:57:02;;;;;;;6.50;3.10;;;9.90;95.40;;;;;;5038834;28;20021;-79
2021/04/21 07:59:32;;;;;;;9.55;3.67;;;9.90;95.30;;;;;;5021216;28;20031;-73
2021/04/21 08:02:21;;;;;;;8.68;2.92;;;10.10;94.80;;;;;;5038507;28;20054;-70
2021/04/21 08:04:55;;;;;;;5.43;2.92;;;10.30;93.00;;;;;;5038655;28;20056;-71
2021/04/21 08:07:39;;;;;;;6.75;3.08;;;10.30;92.30;;;;;;5038894;28;20055;-72
2021/04/21 08:10:11;;;;;;;15.48;4.47;;;10.40;92.00;;;;;;5038707;28;20068;-69
2021/04/21 08:12:39;;;;;;;10.25;3.42;;;10.50;91.40;;;;;;5039207;28;20017;-70
2021/04/21 08:15:12;;;;;;;7.88;3.42;;;10.50;89.40;;;;;;5038367;28;20057;-70
2021/04/21 08:18:04;;;;;;;9.02;4.07;;;10.70;88.90;;;;;;5038250;28;20020;-71
2021/04/21 08:20:38;;;;;;;7.25;3.13;;;10.70;88.70;;;;;;5037586;28;20021;-70
2021/04/21 08:23:08;;;;;;;10.65;3.22;;;10.80;87.80;;;;;;5019843;28;20041;-71
2021/04/21 08:25:36;;;;;;;9.05;3.30;;;10.90;86.40;;;;;;5038045;28;20025;-70
2021/04/21 08:28:05;;;;;;;4.90;2.75;;;11.00;84.40;;;;;;5020008;28;20073;-72
2021/04/21 08:30:33;;;;;;;6.38;3.13;;;11.10;78.50;;;;;;5037544;28;20067;-71
2021/04/21 08:33:02;;;;;;;6.70;2.85;;;11.30;72.80;;;;;;5038559;28;20100;-71
2021/04/21 08:35:33;;;;;;;10.30;3.70;;;11.50;71.10;;;;;;5036267;28;20046;-71
2021/04/21 08:38:01;;;;;;;7.25;2.72;;;11.60;69.90;;;;;;5037748;28;20022;-71
2021/04/21 08:40:29;;;;;;;6.75;3.20;;;11.70;67.60;;;;;;5020544;28;20338;-71
2021/04/21 08:42:59;;;;;;;8.90;3.13;;;11.80;64.80;;;;;;5039389;28;20021;-71
2021/04/21 08:45:27;;;;;;;8.32;3.22;;;11.90;62.60;;;;;;5037924;28;20104;-71
2021/04/21 08:47:56;;;;;;;7.38;3.10;;;12.10;63.20;;;;;;5037878;28;20358;-71
2021/04/21 08:50:27;;;;;;;6.28;3.05;;;12.20;62.60;;;;;;5038672;28;20026;-71
2021/04/21 08:52:59;;;;;;;8.65;3.00;;;12.30;63.90;;;;;;5037818;28;20429;-70
2021/04/21 08:55:28;;;;;;;12.27;3.30;;;12.30;63.20;;;;;;5037182;28;20390;-70
2021/04/21 08:57:57;;;;;;;6.78;3.70;;;12.30;64.00;;;;;;5037183;28;20025;-70
2021/04/21 09:00:24;;;;;;;7.43;2.60;;;12.40;62.20;;;;;;5037047;28;20416;-71
2021/04/21 09:02:52;;;;;;;8.15;3.33;;;12.60;62.00;;;;;;5037118;28;20125;-73
2021/04/21 09:05:20;;;;;;;8.07;4.05;;;12.60;61.40;;;;;;5037068;28;20025;-71
2021/04/21 09:07:48;;;;;;;8.65;3.47;;;12.80;60.90;;;;;;5036887;28;20385;-71
2021/04/21 09:10:18;;;;;;;6.07;3.30;;;12.80;60.90;;;;;;5019336;28;20018;-70
2021/04/21 09:12:46;;;;;;;9.60;2.70;;;12.90;60.00;;;;;;5019179;28;20036;-71
2021/04/21 09:15:16;;;;;;;7.93;3.40;;;13.00;61.60;;;;;;5019122;28;20022;-74
2021/04/21 09:17:51;;;;;;;5.30;2.97;;;13.10;59.40;;;;;;5037121;28;20017;-73
2021/04/21 09:20:21;;;;;;;7.50;3.17;;;13.20;58.20;;;;;;5037645;28;20044;-72
2021/04/21 09:23:03;;;;;;;5.18;2.70;;;13.30;57.80;;;;;;5019708;28;20032;-71
2021/04/21 09:25:39;;;;;;;7.80;2.97;;;13.30;56.70;;;;;;5037408;28;20096;-73
2021/04/21 09:28:08;;;;;;;4.45;2.50;;;13.40;57.60;;;;;;5037510;28;20025;-71
2021/04/21 09:30:42;;;;;;;4.95;2.58;;;13.40;57.00;;;;;;5037260;28;20108;-71
2021/04/21 09:33:10;;;;;;;9.27;3.15;;;13.40;55.80;;;;;;5019695;28;20112;-69
2021/04/21 09:35:42;;;;;;;5.85;2.63;;;13.40;57.00;;;;;;5020180;28;20099;-73
2021/04/21 09:38:19;;;;;;;4.63;2.38;;;13.50;55.40;;;;;;5036373;28;20018;-71
2021/04/21 09:40:49;;;;;;;5.05;2.53;;;13.50;53.20;;;;;;5018893;28;20033;-71
2021/04/21 09:43:22;;;;;;;9.85;3.25;;;13.60;53.60;;;;;;5036348;28;20025;-67
2021/04/21 09:45:56;;;;;;;4.30;2.40;;;13.70;54.90;;;;;;5036355;28;20426;-67
2021/04/21 09:48:33;;;;;;;5.18;2.40;;;13.80;54.70;;;;;;5040622;28;20072;-67
2021/04/21 09:51:09;;;;;;;5.05;2.50;;;13.90;53.30;;;;;;5040570;28;20029;-67
2021/04/21 09:53:45;;;;;;;8.63;2.20;;;14.00;53.50;;;;;;5040908;28;20402;-67
2021/04/21 09:56:22;;;;;;;5.57;2.25;;;14.00;53.20;;;;;;5040477;28;20491;-68
2021/04/21 09:59:04;;;;;;;7.43;2.40;;;14.00;53.00;;;;;;5041009;28;20083;-67
2021/04/21 10:01:34;;;;;;;11.27;3.05;;;14.10;52.80;;;;;;5040921;28;20077;-67
2021/04/21 10:04:19;;;;;;;4.22;1.92;;;14.00;50.50;;;;;;5041524;28;20359;-69
2021/04/21 10:06:58;;;;;;;4.95;2.13;;;14.10;50.20;;;;;;5023551;28;20112;-66
2021/04/21 10:09:35;;;;;;;4.93;2.30;;;14.20;50.10;;;;;;5040983;28;20032;-67
2021/04/21 10:12:22;;;;;;;5.65;2.15;;;14.30;53.20;;;;;;5023467;28;20021;-67
2021/04/21 10:14:49;;;;;;;;;;;14.40;51.60;;;;;;5042065;28;20025;-67
2021/04/21 10:17:18;;;;;;;7.15;3.10;;;14.60;50.50;;;;;;5041047;28;19909;-67
2021/04/21 10:19:45;;;;;;;8.00;2.83;;;14.60;51.30;;;;;;5040240;28;20018;-67
2021/04/21 10:22:14;;;;;;;7.05;2.28;;;14.70;50.60;;;;;;5039757;28;20025;-66
2021/04/21 10:24:42;;;;;;;6.95;2.78;;;14.80;49.90;;;;;;5039853;28;20322;-67
2021/04/21 10:27:10;;;;;;;4.35;2.35;;;14.90;49.50;;;;;;5040307;28;20017;-67
2021/04/21 10:29:38;;;;;;;5.30;2.28;;;14.90;50.10;;;;;;5040111;28;20037;-67
2021/04/21 10:32:06;;;;;;;8.18;3.80;;;15.00;48.40;;;;;;5022090;28;20026;-67
2021/04/21 10:34:33;;;;;;;5.80;2.40;;;15.00;48.30;;;;;;5039449;28;20025;-67
2021/04/21 10:37:02;;;;;;;4.50;2.47;;;15.00;48.00;;;;;;5022240;28;20388;-67
2021/04/21 10:39:33;;;;;;;5.28;2.10;;;15.00;47.20;;;;;;5022220;28;20021;-67
2021/04/21 10:42:10;;;;;;;4.25;2.42;;;15.10;48.40;;;;;;5022678;28;20057;-70
2021/04/21 10:44:43;;;;;;;8.80;2.60;;;15.10;47.30;;;;;;5040806;28;20037;-66
2021/04/21 10:47:13;;;;;;;7.50;2.92;;;15.10;47.00;;;;;;5040472;28;20113;-66
2021/04/21 10:50:03;;;;;;;4.80;2.42;;;15.20;46.10;;;;;;5040553;28;20076;-67
2021/04/21 10:52:31;;;;;;;4.70;2.60;;;15.20;46.20;;;;;;5039989;28;20317;-66
2021/04/21 10:55:28;;;;;;;9.63;3.10;;;15.20;47.10;;;;;;5040771;28;20025;-67
2021/04/21 10:58:09;;;;;;;4.97;2.60;;;15.30;47.50;;;;;;5039217;28;20025;-66
2021/04/21 11:00:39;;;;;;;5.47;2.63;;;15.30;47.30;;;;;;5039043;28;20421;-67
2021/04/21 11:03:09;;;;;;;4.60;2.60;;;15.40;47.80;;;;;;5039093;28;20079;-67
2021/04/21 11:05:47;;;;;;;5.10;2.58;;;15.40;48.80;;;;;;5038912;28;20049;-66
2021/04/21 11:08:21;;;;;;;7.40;3.30;;;15.50;48.00;;;;;;5038807;28;20551;-66
2021/04/21 11:11:07;;;;;;;10.45;4.38;;;15.70;48.80;;;;;;5039604;28;20036;-66
2021/04/21 11:13:35;;;;;;;15.98;4.20;;;15.80;49.00;;;;;;5038844;28;20022;-68
2021/04/21 11:16:22;;;;;;;5.82;3.25;;;15.90;47.50;;;;;;5039332;28;20306;-67
2021/04/21 11:18:51;;;;;;;10.15;4.40;;;15.90;47.20;;;;;;5021200;28;20029;-66
2021/04/21 11:21:22;;;;;;;8.27;3.80;;;15.80;48.20;;;;;;5039394;28;20022;-67
2021/04/21 11:24:00;;;;;;;5.03;3.22;;;15.70;48.00;;;;;;5039541;28;20026;-66
2021/04/21 11:26:31;;;;;;;9.35;3.28;;;15.70;48.30;;;;;;5039555;28;20363;-66
2021/04/21 11:29:29;;;;;;;4.53;2.95;;;15.80;50.00;;;;;;5039911;28;20033;-66
2021/04/21 11:31:57;;;;;;;9.45;3.85;;;15.90;49.20;;;;;;5040140;28;20287;-66
2021/04/21 11:34:33;;;;;;;5.60;3.58;;;16.00;49.80;;;;;;5039527;28;20099;-66
2021/04/21 11:37:02;;;;;;;;;;;16.00;50.50;;;;;;5039767;28;20021;-66
2021/04/21 11:39:42;;;;;;;7.00;3.58;;;16.00;50.40;;;;;;5039486;28;19905;-66
2021/04/21 11:42:37;;;;;;;6.88;4.20;;;16.00;49.40;;;;;;5039041;28;20049;-66
2021/04/21 11:45:28;;;;;;;6.70;3.70;;;16.00;50.10;;;;;;5038373;28;20021;-66
2021/04/21 11:48:07;;;;;;;7.75;4.28;;;16.10;51.10;;;;;;5038187;28;20025;-66
2021/04/21 11:50:44;;;;;;;6.30;3.85;;;16.20;50.20;;;;;;5038379;28;20431;-66
2021/04/21 11:53:13;;;;;;;9.10;3.85;;;16.30;51.00;;;;;;5038251;28;20423;-69
2021/04/21 11:56:02;;;;;;;9.13;3.88;;;16.40;52.00;;;;;;5020501;28;20029;-67
2021/04/21 11:58:37;;;;;;;7.57;3.65;;;16.50;50.30;;;;;;5038443;28;20029;-66
2021/04/21 12:01:21;;;;;;;6.57;3.42;;;16.60;48.70;;;;;;5037803;28;20460;-66
2021/04/21 12:03:48;;;;;;;6.18;3.05;;;16.70;48.40;;;;;;5021085;28;20033;-69
2021/04/21 12:06:18;;;;;;;9.95;3.25;;;16.70;49.20;;;;;;5038767;28;20121;-66
2021/04/21 12:08:47;;;;;;;6.22;3.30;;;16.80;44.40;;;;;;5039211;28;20025;-67
2021/04/21 12:11:33;;;;;;;6.95;2.90;;;16.70;44.10;;;;;;5020959;28;20030;-67
2021/04/21 12:14:03;;;;;;;8.23;3.80;;;16.70;46.10;;;;;;5038851;28;20014;-66
2021/04/21 12:16:36;;;;;;;7.18;3.92;;;16.80;46.60;;;;;;5038696;28;20026;-66
2021/04/21 12:19:04;;;;;;;4.18;2.75;;;16.80;46.70;;;;;;5038397;28;20353;-67
2021/04/21 12:21:35;;;;;;;10.52;3.10;;;16.80;45.10;;;;;;5038094;28;20378;-67
2021/04/21 12:24:10;;;;;;;7.03;3.50;;;16.80;44.70;;;;;;5037938;28;20022;-66
2021/04/21 12:26:41;;;;;;;5.75;3.10;;;16.90;44.60;;;;;;5038006;28;20028;-66
2021/04/21 12:29:22;;;;;;;5.65;3.13;;;16.90;45.40;;;;;;5037521;28;20033;-66
2021/04/21 12:31:51;;;;;;;6.80;3.08;;;17.00;46.50;;;;;;5019767;28;20071;-66
2021/04/21 12:34:24;;;;;;;8.10;3.15;;;17.10;45.80;;;;;;5037125;28;20056;-67
2021/04/21 12:36:52;;;;;;;7.60;2.83;;;17.20;44.50;;;;;;5037198;28;20022;-67
2021/04/21 12:39:22;;;;;;;6.65;2.90;;;17.20;43.70;;;;;;5019603;28;20026;-68
2021/04/21 12:41:57;;;;;;;6.40;2.90;;;17.20;44.80;;;;;;5037580;28;20036;-67
2021/04/21 12:44:30;;;;;;;9.07;3.75;;;17.30;44.20;;;;;;5020046;28;20029;-67
2021/04/21 12:47:06;;;;;;;5.80;3.47;;;17.20;43.20;;;;;;5020661;28;20026;-67
2021/04/21 12:49:50;;;;;;;5.75;3.05;;;17.20;44.90;;;;;;5020230;28;20329;-67
2021/04/21 12:52:29;;;;;;;6.25;3.78;;;17.40;45.60;;;;;;5020769;28;20021;-67
2021/04/21 12:54:57;;;;;;;15.57;4.28;;;17.60;45.50;;;;;;5038013;28;20047;-67
2021/04/21 12:57:26;;;;;;;14.57;4.07;;;17.70;46.20;;;;;;5037859;28;20026;-67
2021/04/21 12:59:59;;;;;;;6.07;3.88;;;17.70;44.30;;;;;;5020288;28;20036;-67
2021/04/21 13:02:45;;;;;;;10.27;3.95;;;17.60;44.70;;;;;;5037494;28;20496;-67
2021/04/21 13:05:19;;;;;;;8.63;3.60;;;17.60;44.70;;;;;;5019562;28;20334;-67
2021/04/21 13:07:49;;;;;;;10.70;4.15;;;17.80;45.00;;;;;;5036724;28;20033;-67
2021/04/21 13:10:18;;;;;;;7.40;4.47;;;18.40;44.90;;;;;;5036674;28;20100;-67
2021/04/21 13:12:46;;;;;;;7.85;3.92;;;19.10;43.50;;;;;;5019566;28;20056;-67
2021/04/21 13:15:23;;;;;;;11.85;4.53;;;19.50;42.50;;;;;;5037330;28;20031;-67
2021/04/21 13:17:53;;;;;;;9.10;4.10;;;19.90;41.50;;;;;;5036611;28;20363;-67
2021/04/21 13:20:44;;;;;;;10.30;3.88;;;19.60;41.30;;;;;;5036470;28;20022;-67
2021/04/21 13:23:26;;;;;;;8.15;4.20;;;19.30;42.30;;;;;;5018901;28;20033;-67
2021/04/21 13:25:55;;;;;;;8.35;3.67;;;19.00;42.70;;;;;;5036613;28;20022;-67
2021/04/21 13:28:23;;;;;;;6.15;3.97;;;18.90;43.10;;;;;;5037251;28;20071;-67
2021/04/21 13:31:14;;;;;;;9.25;3.80;;;18.90;44.60;;;;;;5037922;28;20022;-69
2021/04/21 13:33:43;;;;;;;7.75;4.30;;;18.80;42.60;;;;;;5037563;28;20043;-68
2021/04/21 13:36:12;;;;;;;8.88;3.63;;;18.60;43.60;;;;;;5019651;28;20022;-70
2021/04/21 13:38:42;;;;;;;7.63;3.78;;;18.40;44.10;;;;;;5037187;28;20479;-71